createdAt,value
2022-10-28T00:03:10.723Z,17.28
2022-10-28T00:08:13.330Z,17.26
2022-10-28T00:13:15.149Z,17.25
2022-10-28T00:18:16.698Z,17.23
2022-10-28T00:23:18.313Z,17.21
2022-10-28T00:28:20.795Z,17.21
2022-10-28T00:33:22.426Z,17.18
2022-10-28T00:38:24.610Z,17.16
2022-10-28T00:43:39.485Z,17.14
2022-10-28T00:48:45.567Z,17.10
2022-10-28T00:53:48.430Z,17.08
2022-10-28T00:58:50.654Z,17.05
2022-10-28T01:03:54.373Z,17.02
2022-10-28T01:08:59.888Z,17.00
2022-10-28T01:14:25.043Z,16.94
2022-10-28T01:20:04.339Z,16.92
2022-10-28T01:25:47.638Z,16.86
2022-10-28T01:31:30.038Z,16.83
2022-10-28T01:36:47.375Z,16.79
2022-10-28T01:41:56.783Z,16.76
2022-10-28T01:47:10.818Z,16.73
2022-10-28T01:52:18.393Z,16.69
2022-10-28T01:57:23.922Z,16.67
2022-10-28T02:02:26.719Z,16.63
2022-10-28T02:07:28.353Z,16.60
2022-10-28T02:12:35.512Z,16.56
2022-10-28T02:18:11.885Z,16.50
2022-10-28T02:23:51.386Z,16.47
2022-10-28T02:29:05.942Z,16.45
2022-10-28T02:34:12.904Z,16.44
2022-10-28T02:39:17.306Z,16.41
2022-10-28T02:44:26.538Z,16.36
2022-10-28T02:49:31.083Z,16.35
2022-10-28T02:54:51.149Z,16.32
2022-10-28T03:00:06.551Z,16.29
2022-10-28T03:05:08.645Z,16.27
2022-10-28T03:10:10.458Z,16.25
2022-10-28T03:15:12.101Z,16.24
2022-10-28T03:20:13.810Z,16.21
2022-10-28T03:25:15.392Z,16.21
2022-10-28T03:30:18.536Z,16.20
2022-10-28T03:35:20.643Z,16.17
2022-10-28T03:40:22.263Z,16.16
2022-10-28T03:45:24.796Z,16.15
2022-10-28T03:50:26.925Z,16.12
2022-10-28T03:55:29.784Z,16.10
2022-10-28T04:00:32.261Z,16.07
2022-10-28T04:05:36.015Z,16.06
2022-10-28T04:10:37.857Z,16.03
2022-10-28T04:15:39.911Z,16.01
2022-10-28T04:20:41.521Z,16.01
2022-10-28T04:25:43.325Z,15.99
2022-10-28T04:30:48.003Z,15.99
2022-10-28T04:35:49.665Z,15.97
2022-10-28T04:40:51.363Z,15.95
2022-10-28T04:45:53.006Z,15.94
2022-10-28T04:50:57.383Z,15.93
2022-10-28T04:56:00.548Z,15.91
2022-10-28T05:01:09.445Z,15.90
2022-10-28T05:06:11.153Z,15.88
2022-10-28T05:11:13.626Z,15.85
2022-10-28T05:16:15.496Z,15.85
2022-10-28T05:21:17.091Z,15.84
2022-10-28T05:26:19.166Z,15.83
2022-10-28T05:31:20.982Z,15.80
2022-10-28T05:36:22.816Z,15.78
2022-10-28T05:41:25.449Z,15.76
2022-10-28T05:46:27.362Z,15.73
2022-10-28T05:51:29.177Z,15.75
2022-10-28T05:56:31.063Z,15.73
2022-10-28T06:01:32.718Z,15.71
2022-10-28T06:06:34.807Z,15.70
2022-10-28T06:11:35.072Z,15.69
2022-10-28T06:16:37.773Z,15.67
2022-10-28T06:21:40.050Z,15.66
2022-10-28T06:26:42.858Z,15.66
2022-10-28T06:31:44.716Z,15.65
2022-10-28T06:36:47.478Z,15.64
2022-10-28T06:41:49.132Z,15.65
2022-10-28T06:46:52.519Z,15.65
2022-10-28T06:51:54.441Z,15.68
2022-10-28T06:56:56.432Z,15.69
2022-10-28T07:01:59.407Z,15.73
2022-10-28T07:07:01.877Z,15.77
2022-10-28T07:12:05.065Z,15.82
2022-10-28T07:17:07.409Z,15.86
2022-10-28T07:22:09.009Z,15.87
2022-10-28T07:27:10.818Z,15.91
2022-10-28T07:32:12.896Z,15.94
2022-10-28T07:37:15.026Z,15.98
2022-10-28T07:42:16.843Z,16.01
2022-10-28T07:47:19.715Z,16.04
2022-10-28T07:52:21.535Z,16.07
2022-10-28T07:57:23.565Z,16.12
2022-10-28T08:02:26.115Z,16.13
2022-10-28T08:07:28.372Z,16.18
2022-10-28T08:12:30.788Z,16.20
2022-10-28T08:17:32.397Z,16.24
2022-10-28T08:22:34.062Z,16.31
2022-10-28T08:27:36.230Z,16.36
2022-10-28T08:32:38.020Z,16.41
2022-10-28T08:37:39.624Z,16.47
2022-10-28T08:42:52.167Z,16.51
2022-10-28T08:48:09.327Z,16.57
2022-10-28T08:53:19.824Z,16.59
2022-10-28T08:58:31.102Z,16.64
2022-10-28T09:03:39.237Z,16.68
2022-10-28T09:08:44.292Z,16.73
2022-10-28T09:14:13.988Z,16.76
2022-10-28T09:19:40.290Z,16.84
2022-10-28T09:25:02.776Z,16.89
2022-10-28T09:30:16.874Z,17.01
2022-10-28T09:35:23.634Z,17.10
2022-10-28T09:40:29.756Z,17.24
2022-10-28T09:45:36.264Z,17.37
2022-10-28T09:50:38.673Z,17.47
2022-10-28T09:55:40.451Z,17.58
2022-10-28T10:00:42.257Z,17.71
2022-10-28T10:05:50.603Z,17.86
2022-10-28T10:11:09.969Z,18.04
2022-10-28T10:16:18.186Z,18.15
2022-10-28T10:21:46.902Z,18.23
2022-10-28T10:26:48.704Z,18.32
2022-10-28T10:32:20.067Z,18.42
2022-10-28T10:37:22.827Z,18.59
2022-10-28T10:42:25.626Z,18.73
2022-10-28T10:47:27.619Z,18.88
2022-10-28T10:52:29.716Z,19.04
2022-10-28T10:57:32.840Z,19.12
2022-10-28T11:02:42.889Z,19.18
2022-10-28T11:07:48.708Z,19.26
2022-10-28T11:12:56.591Z,19.38
2022-10-28T11:18:17.200Z,19.53
2022-10-28T11:23:42.209Z,19.67
2022-10-28T11:29:14.019Z,19.76
2022-10-28T11:34:49.731Z,19.86
2022-10-28T11:40:03.626Z,20.00
2022-10-28T11:45:08.458Z,20.12
2022-10-28T11:55:44.266Z,20.39
2022-10-28T12:01:01.143Z,20.50
2022-10-28T12:06:12.450Z,20.67
2022-10-28T12:11:26.505Z,20.82
2022-10-28T12:16:51.978Z,20.95
2022-10-28T12:22:39.658Z,21.05
2022-10-28T12:27:45.161Z,21.13
2022-10-28T12:32:50.241Z,21.20
2022-10-28T12:37:59.216Z,21.30
2022-10-28T12:43:16.289Z,21.40
2022-10-28T12:48:42.638Z,21.54
2022-10-28T12:54:00.450Z,21.68
2022-10-28T12:59:14.873Z,21.84
2022-10-28T13:04:17.102Z,21.97
2022-10-28T13:09:48.332Z,22.06
2022-10-28T13:15:18.884Z,22.10
2022-10-28T13:20:26.316Z,22.16
2022-10-28T13:25:43.039Z,22.23
2022-10-28T13:30:57.238Z,22.22
2022-10-28T13:36:31.575Z,22.22
2022-10-28T13:41:44.690Z,22.20
2022-10-28T13:47:25.611Z,22.16
2022-10-28T13:52:27.225Z,22.13
2022-10-28T13:57:36.004Z,22.13
2022-10-28T14:03:04.802Z,22.10
2022-10-28T14:08:18.007Z,22.11
2022-10-28T14:13:22.544Z,22.13
2022-10-28T14:24:07.127Z,22.12
2022-10-28T14:29:27.524Z,22.13
2022-10-28T14:34:39.484Z,22.11
2022-10-28T14:39:50.366Z,22.07
2022-10-28T14:45:31.886Z,22.02
2022-10-28T14:50:42.541Z,22.00
2022-10-28T14:55:52.383Z,21.95
2022-10-28T15:01:04.360Z,21.89
2022-10-28T15:06:31.078Z,21.79
2022-10-28T15:11:34.037Z,21.69
2022-10-28T15:16:35.899Z,21.63
2022-10-28T15:21:37.793Z,21.53
2022-10-28T15:26:39.684Z,21.45
2022-10-28T15:32:04.810Z,21.36
2022-10-28T15:37:07.172Z,21.28
2022-10-28T15:42:47.372Z,21.19
2022-10-28T15:47:49.214Z,21.08
2022-10-28T15:52:54.300Z,21.01
2022-10-28T15:58:23.896Z,20.94
2022-10-28T16:03:27.148Z,20.85
2022-10-28T16:08:32.737Z,20.79
2022-10-28T16:13:38.301Z,20.72
2022-10-28T16:18:46.573Z,20.66
2022-10-28T16:23:52.520Z,20.60
2022-10-28T16:28:54.920Z,20.52
2022-10-28T16:33:58.479Z,20.47
2022-10-28T16:39:00.834Z,20.43
2022-10-28T16:44:02.574Z,20.38
2022-10-28T16:49:04.181Z,20.33
2022-10-28T16:54:05.841Z,20.26
2022-10-28T16:59:07.697Z,20.20
2022-10-28T17:04:10.513Z,20.14
2022-10-28T17:09:12.191Z,20.08
2022-10-28T17:14:15.317Z,20.04
2022-10-28T17:19:17.160Z,19.98
2022-10-28T17:24:20.595Z,19.91
2022-10-28T17:29:22.433Z,19.84
2022-10-28T17:34:24.026Z,19.79
2022-10-28T17:39:26.616Z,19.73
2022-10-28T17:44:29.613Z,19.68
2022-10-28T17:49:34.776Z,19.67
2022-10-28T17:54:38.305Z,19.63
2022-10-28T17:59:40.775Z,19.61
2022-10-28T18:04:45.467Z,19.60
2022-10-28T18:09:47.298Z,19.59
2022-10-28T18:14:51.209Z,19.56
2022-10-28T18:19:53.035Z,19.55
2022-10-28T18:24:57.328Z,19.53
2022-10-28T18:30:01.130Z,19.52
2022-10-28T18:35:03.893Z,19.49
2022-10-28T18:40:10.650Z,19.49
2022-10-28T18:45:13.638Z,19.47
2022-10-28T18:50:17.163Z,19.45
2022-10-28T18:55:21.832Z,19.44
2022-10-28T19:00:23.613Z,19.42
2022-10-28T19:05:26.302Z,19.42
2022-10-28T19:10:29.173Z,19.40
2022-10-28T19:15:32.378Z,19.38
2022-10-28T19:20:35.899Z,19.36
2022-10-28T19:25:39.415Z,19.33
2022-10-28T19:30:41.231Z,19.31
2022-10-28T19:35:42.966Z,19.27
2022-10-28T19:40:44.685Z,19.25
2022-10-28T19:45:46.881Z,19.23
2022-10-28T19:50:49.807Z,19.20
2022-10-28T19:55:59.014Z,19.17
2022-10-28T20:01:04.611Z,19.16
2022-10-28T20:06:10.169Z,19.15
2022-10-28T20:11:21.444Z,19.11
2022-10-28T20:16:30.573Z,19.09
2022-10-28T20:21:35.441Z,19.06
2022-10-28T20:26:40.515Z,19.06
2022-10-28T20:31:43.404Z,19.04
2022-10-28T20:36:45.606Z,19.01
2022-10-28T20:41:49.303Z,19.00
2022-10-28T20:46:52.549Z,18.98
2022-10-28T20:51:55.801Z,18.95
2022-10-28T20:56:58.161Z,18.94
2022-10-28T21:02:01.176Z,18.90
2022-10-28T21:07:08.689Z,18.88
2022-10-28T21:12:10.378Z,18.87
2022-10-28T21:17:12.378Z,18.84
2022-10-28T21:22:15.679Z,18.82
2022-10-28T21:27:18.346Z,18.80
2022-10-28T21:32:20.034Z,18.76
2022-10-28T21:37:22.978Z,18.74
2022-10-28T21:42:27.046Z,18.71
2022-10-28T21:47:29.042Z,18.70
2022-10-28T21:52:31.146Z,18.68
2022-10-28T21:57:34.031Z,18.66
2022-10-28T22:02:36.246Z,18.63
2022-10-28T22:07:39.300Z,18.58
2022-10-28T22:12:42.265Z,18.55
2022-10-28T22:17:45.832Z,18.52
2022-10-28T22:22:47.716Z,18.47
2022-10-28T22:27:50.894Z,18.45
2022-10-28T22:32:56.754Z,18.42
2022-10-28T22:38:00.057Z,18.38
2022-10-28T22:43:01.774Z,18.35
2022-10-28T22:48:03.945Z,18.31
2022-10-28T22:53:06.047Z,18.28
2022-10-28T22:58:07.785Z,18.24
2022-10-28T23:03:11.590Z,18.21
2022-10-28T23:08:16.491Z,18.17
2022-10-28T23:13:21.894Z,18.11
2022-10-28T23:18:31.655Z,18.07
2022-10-28T23:23:37.294Z,18.01
2022-10-28T23:28:41.222Z,17.98
2022-10-28T23:33:46.610Z,17.93
2022-10-28T23:38:49.630Z,17.90
2022-10-28T23:43:51.509Z,17.87
2022-10-28T23:48:53.436Z,17.86
2022-10-28T23:53:55.109Z,17.83
2022-10-28T23:58:59.101Z,17.79
